createdAt,value
2023-03-07T00:01:03.325Z,9.68
2023-03-07T00:03:31.266Z,8.73
2023-03-07T00:06:05.183Z,10.50
2023-03-07T00:08:33.305Z,10.93
2023-03-07T00:11:05.266Z,9.70
2023-03-07T00:13:34.320Z,10.68
2023-03-07T00:16:03.795Z,10.07
2023-03-07T00:18:32.360Z,9.90
2023-03-07T00:21:00.896Z,12.60
2023-03-07T00:23:30.378Z,10.25
2023-03-07T00:25:59.853Z,10.73
2023-03-07T00:28:27.700Z,10.00
2023-03-07T00:30:55.606Z,8.45
2023-03-07T00:33:23.861Z,14.02
2023-03-07T00:36:02.899Z,9.50
2023-03-07T00:38:33.497Z,11.45
2023-03-07T00:41:03.521Z,10.02
2023-03-07T00:43:32.145Z,11.70
2023-03-07T00:46:00.594Z,12.13
2023-03-07T00:48:29.868Z,11.02
2023-03-07T00:50:58.006Z,15.65
2023-03-07T00:53:26.204Z,14.38
2023-03-07T00:55:57.710Z,12.45
2023-03-07T00:58:26.658Z,13.88
2023-03-07T01:00:54.796Z,11.07
2023-03-07T01:03:24.071Z,12.02
2023-03-07T01:05:53.104Z,13.73
2023-03-07T01:08:21.899Z,15.80
2023-03-07T01:10:50.494Z,16.60
2023-03-07T01:13:20.918Z,18.00
2023-03-07T01:15:49.070Z,17.83
2023-03-07T01:18:17.207Z,15.15
2023-03-07T01:20:45.055Z,19.95
2023-03-07T01:23:15.877Z,13.95
2023-03-07T01:25:44.829Z,17.35
2023-03-07T01:28:15.105Z,21.20
2023-03-07T01:30:45.517Z,16.45
2023-03-07T01:33:13.300Z,16.13
2023-03-07T01:35:41.451Z,19.13
2023-03-07T01:38:10.215Z,19.38
2023-03-07T01:40:39.624Z,21.90
2023-03-07T01:43:24.198Z,17.73
2023-03-07T01:46:31.766Z,20.08
2023-03-07T01:49:05.235Z,20.27
2023-03-07T01:51:33.764Z,22.85
2023-03-07T01:54:02.616Z,22.60
2023-03-07T01:56:31.581Z,23.20
2023-03-07T01:58:59.577Z,23.50
2023-03-07T02:01:29.684Z,26.38
2023-03-07T02:04:03.639Z,22.77
2023-03-07T02:06:34.598Z,22.13
2023-03-07T02:09:03.733Z,24.15
2023-03-07T02:11:31.795Z,25.90
2023-03-07T02:13:59.553Z,25.02
2023-03-07T02:16:28.883Z,30.48
2023-03-07T02:18:57.216Z,25.63
2023-03-07T02:21:36.980Z,25.48
2023-03-07T02:24:15.687Z,29.38
2023-03-07T02:26:46.595Z,27.55
2023-03-07T02:29:15.367Z,31.30
2023-03-07T02:31:43.180Z,27.63
2023-03-07T02:34:22.203Z,30.85
2023-03-07T02:36:53.819Z,29.77
2023-03-07T02:39:24.805Z,32.08
2023-03-07T02:41:57.343Z,27.80
2023-03-07T02:44:25.456Z,29.30
2023-03-07T02:46:53.115Z,28.08
2023-03-07T02:49:20.930Z,31.20
2023-03-07T02:51:48.872Z,29.45
2023-03-07T02:54:16.858Z,30.45
2023-03-07T02:56:47.946Z,31.17
2023-03-07T02:59:17.388Z,31.17
2023-03-07T03:01:50.343Z,30.80
2023-03-07T03:04:18.455Z,30.73
2023-03-07T03:06:46.342Z,26.65
2023-03-07T03:09:14.118Z,32.92
2023-03-07T03:11:44.307Z,35.65
2023-03-07T03:14:12.257Z,32.23
2023-03-07T03:16:42.358Z,28.27
2023-03-07T03:19:10.109Z,28.27
2023-03-07T03:21:40.778Z,30.02
2023-03-07T03:24:10.427Z,29.70
2023-03-07T03:26:46.501Z,27.83
2023-03-07T03:29:14.809Z,32.80
2023-03-07T03:31:43.966Z,34.65
2023-03-07T03:34:11.752Z,32.45
2023-03-07T03:36:39.508Z,33.60
2023-03-07T03:39:11.054Z,37.73
2023-03-07T03:41:39.499Z,31.77
2023-03-07T03:44:08.463Z,30.80
2023-03-07T03:46:36.857Z,33.85
2023-03-07T03:49:06.784Z,33.42
2023-03-07T03:51:34.591Z,31.48
2023-03-07T03:54:02.589Z,33.47
2023-03-07T03:56:30.719Z,34.67
2023-03-07T03:58:59.175Z,28.88
2023-03-07T04:01:29.299Z,30.70
2023-03-07T04:03:58.405Z,32.45
2023-03-07T04:06:30.730Z,29.40
2023-03-07T04:08:59.419Z,31.95
2023-03-07T04:11:27.816Z,30.98
2023-03-07T04:13:55.897Z,31.80
2023-03-07T04:16:23.990Z,34.83
2023-03-07T04:18:52.555Z,34.33
2023-03-07T04:21:22.161Z,30.13
2023-03-07T04:23:55.473Z,32.05
2023-03-07T04:26:23.754Z,33.05
2023-03-07T04:28:51.562Z,33.23
2023-03-07T04:31:21.992Z,30.43
2023-03-07T04:33:50.768Z,33.92
2023-03-07T04:36:19.571Z,33.47
2023-03-07T04:38:48.476Z,30.10
2023-03-07T04:41:19.408Z,29.30
2023-03-07T04:43:47.534Z,33.43
2023-03-07T04:46:19.039Z,35.13
2023-03-07T04:48:47.295Z,29.97
2023-03-07T04:51:15.552Z,30.57
2023-03-07T04:53:43.542Z,30.53
2023-03-07T04:56:12.394Z,29.67
2023-03-07T04:58:42.337Z,26.23
2023-03-07T05:01:10.149Z,26.33
2023-03-07T05:03:38.021Z,28.67
2023-03-07T05:06:08.525Z,29.20
2023-03-07T05:08:37.639Z,28.13
2023-03-07T05:11:05.838Z,31.60
2023-03-07T05:13:34.044Z,30.17
2023-03-07T05:16:03.558Z,30.87
2023-03-07T05:18:31.514Z,28.30
2023-03-07T05:20:59.670Z,27.33
2023-03-07T05:23:27.622Z,29.97
2023-03-07T05:25:55.342Z,27.47
2023-03-07T05:28:23.288Z,30.23
2023-03-07T05:30:51.223Z,32.53
2023-03-07T05:33:20.411Z,30.90
2023-03-07T05:35:48.260Z,31.17
2023-03-07T05:38:16.109Z,33.97
2023-03-07T05:40:44.145Z,32.63
2023-03-07T05:43:12.138Z,31.60
2023-03-07T05:45:39.909Z,31.67
2023-03-07T05:48:08.050Z,33.47
2023-03-07T05:50:38.316Z,32.00
2023-03-07T05:53:06.419Z,30.87
2023-03-07T05:55:34.447Z,37.40
2023-03-07T05:58:02.345Z,32.13
2023-03-07T06:00:30.188Z,26.20
2023-03-07T06:02:58.045Z,29.85
2023-03-07T06:05:26.294Z,26.17
2023-03-07T06:07:55.335Z,31.85
2023-03-07T06:10:23.355Z,24.53
2023-03-07T06:12:52.229Z,31.07
2023-03-07T06:15:20.694Z,33.37
2023-03-07T06:17:48.521Z,27.27
2023-03-07T06:20:17.168Z,28.80
2023-03-07T06:22:45.004Z,28.53
2023-03-07T06:25:15.486Z,24.63
2023-03-07T06:27:43.357Z,26.00
2023-03-07T06:30:13.678Z,29.13
2023-03-07T06:32:41.720Z,24.20
2023-03-07T06:35:10.663Z,26.23
2023-03-07T06:37:38.717Z,26.87
2023-03-07T06:40:09.557Z,34.40
2023-03-07T06:42:38.900Z,30.20
2023-03-07T06:45:07.896Z,24.97
2023-03-07T06:47:35.863Z,23.53
2023-03-07T06:50:03.881Z,27.07
2023-03-07T06:52:32.092Z,25.17
2023-03-07T06:55:01.207Z,24.70
2023-03-07T06:57:29.393Z,24.00
2023-03-07T06:59:58.878Z,28.47
2023-03-07T07:02:27.005Z,26.37
2023-03-07T07:04:55.002Z,26.60
2023-03-07T07:07:23.019Z,29.67
2023-03-07T07:09:50.902Z,29.27
2023-03-07T07:12:18.914Z,25.90
2023-03-07T07:14:46.807Z,32.37
2023-03-07T07:17:16.197Z,27.73
2023-03-07T07:19:44.060Z,21.63
2023-03-07T07:22:12.117Z,28.60
2023-03-07T07:24:40.238Z,27.03
2023-03-07T07:27:08.126Z,23.90
2023-03-07T07:29:36.066Z,32.80
2023-03-07T07:32:04.170Z,23.93
2023-03-07T07:34:33.769Z,24.87
2023-03-07T07:37:01.524Z,29.27
2023-03-07T07:39:29.608Z,26.13
2023-03-07T07:41:57.434Z,31.90
2023-03-07T07:44:25.735Z,29.40
2023-03-07T07:46:53.449Z,29.77
2023-03-07T07:49:22.420Z,29.67
2023-03-07T07:51:51.807Z,34.43
2023-03-07T07:54:19.636Z,24.43
2023-03-07T07:56:47.997Z,25.43
2023-03-07T07:59:15.711Z,21.70
2023-03-07T08:01:46.310Z,26.47
2023-03-07T08:04:14.030Z,21.47
2023-03-07T08:06:41.858Z,24.23
2023-03-07T08:09:11.552Z,21.23
2023-03-07T08:11:39.411Z,22.57
2023-03-07T08:14:07.256Z,21.27
2023-03-07T08:16:35.070Z,23.77
2023-03-07T08:19:02.958Z,21.20
2023-03-07T08:21:30.742Z,22.77
2023-03-07T08:23:58.617Z,21.23
2023-03-07T08:26:27.962Z,24.70
2023-03-07T08:29:00.149Z,21.57
2023-03-07T08:31:28.343Z,22.20
2023-03-07T08:33:56.173Z,26.57
2023-03-07T08:36:24.219Z,25.47
2023-03-07T08:38:53.350Z,24.67
2023-03-07T08:41:22.716Z,22.63
2023-03-07T08:43:51.997Z,22.63
2023-03-07T08:46:19.815Z,18.73
2023-03-07T08:48:48.072Z,23.83
2023-03-07T08:51:17.862Z,22.20
2023-03-07T08:53:46.445Z,17.50
2023-03-07T08:56:16.126Z,21.83
2023-03-07T08:58:44.162Z,20.40
2023-03-07T09:01:14.012Z,17.77
2023-03-07T09:03:41.764Z,17.27
2023-03-07T09:06:09.503Z,16.83
2023-03-07T09:08:37.273Z,15.97
2023-03-07T09:11:05.541Z,16.17
2023-03-07T09:13:43.085Z,13.83
2023-03-07T09:16:15.690Z,14.53
2023-03-07T09:18:43.490Z,15.63
2023-03-07T09:21:12.392Z,12.10
2023-03-07T09:23:40.338Z,12.40
2023-03-07T09:26:08.007Z,12.83
2023-03-07T09:28:35.862Z,12.27
2023-03-07T09:31:08.325Z,12.40
2023-03-07T09:33:37.775Z,12.67
2023-03-07T09:36:06.424Z,11.80
2023-03-07T09:38:34.589Z,13.07
2023-03-07T09:41:16.155Z,12.17
2023-03-07T09:43:48.633Z,13.77
2023-03-07T09:46:28.660Z,12.43
2023-03-07T09:49:12.887Z,12.50
2023-03-07T09:51:43.499Z,11.93
2023-03-07T09:54:14.977Z,10.50
2023-03-07T09:56:47.354Z,8.70
2023-03-07T09:59:23.647Z,10.80
2023-03-07T10:01:59.515Z,8.83
2023-03-07T10:04:36.516Z,8.87
2023-03-07T10:07:06.348Z,9.10
2023-03-07T10:09:34.735Z,9.67
2023-03-07T10:12:20.163Z,9.30
2023-03-07T10:15:12.769Z,13.83
2023-03-07T10:18:10.423Z,7.33
2023-03-07T10:20:59.058Z,8.70
2023-03-07T10:23:42.438Z,8.07
2023-03-07T10:26:12.668Z,8.10
2023-03-07T10:28:43.461Z,7.10
2023-03-07T10:31:21.775Z,8.30
2023-03-07T10:33:51.356Z,11.70
2023-03-07T10:36:23.939Z,8.77
2023-03-07T10:39:01.854Z,8.23
2023-03-07T10:41:30.157Z,7.93
2023-03-07T10:43:58.767Z,8.80
2023-03-07T10:46:30.355Z,7.53
2023-03-07T10:49:10.409Z,7.87
2023-03-07T10:51:50.633Z,8.83
2023-03-07T10:54:22.168Z,8.23
2023-03-07T10:57:08.089Z,8.13
2023-03-07T10:59:36.970Z,9.83
2023-03-07T11:02:22.995Z,7.70
2023-03-07T11:04:50.967Z,11.80
2023-03-07T11:07:29.071Z,8.17
2023-03-07T11:09:58.526Z,10.07
2023-03-07T11:12:29.148Z,6.03
2023-03-07T11:14:59.136Z,6.93
2023-03-07T11:17:30.546Z,7.30
2023-03-07T11:19:59.239Z,4.50
2023-03-07T11:22:33.653Z,5.17
2023-03-07T11:25:04.475Z,4.43
2023-03-07T11:27:36.115Z,4.43
2023-03-07T11:30:13.820Z,3.20
2023-03-07T11:32:46.417Z,6.53
2023-03-07T11:35:19.794Z,3.57
2023-03-07T11:38:00.708Z,5.03
2023-03-07T11:40:32.924Z,4.07
2023-03-07T11:43:11.713Z,2.80
2023-03-07T11:49:06.691Z,3.87
2023-03-07T11:51:52.297Z,3.40
2023-03-07T11:54:35.213Z,5.23
2023-03-07T11:57:15.132Z,5.33
2023-03-07T12:00:20.466Z,5.27
2023-03-07T12:03:18.414Z,3.60
2023-03-07T12:06:12.678Z,4.13
2023-03-07T12:08:49.190Z,4.30
2023-03-07T12:11:32.598Z,4.80
2023-03-07T12:14:11.106Z,3.70
2023-03-07T12:16:50.964Z,5.17
2023-03-07T12:19:43.521Z,4.43
2023-03-07T12:22:27.035Z,10.87
2023-03-07T12:25:18.262Z,3.70
2023-03-07T12:27:55.523Z,3.27
2023-03-07T12:30:28.389Z,4.17
2023-03-07T12:32:57.073Z,3.97
2023-03-07T12:35:31.115Z,2.77
2023-03-07T12:38:05.359Z,3.83
2023-03-07T12:40:36.610Z,9.57
2023-03-07T12:43:17.458Z,3.30
2023-03-07T12:45:50.121Z,2.70
2023-03-07T12:48:24.449Z,2.23
2023-03-07T12:50:58.394Z,3.60
2023-03-07T12:53:34.836Z,2.77
2023-03-07T12:56:11.210Z,4.53
2023-03-07T12:58:48.258Z,2.60
2023-03-07T13:01:20.592Z,4.47
2023-03-07T13:03:54.729Z,2.57
2023-03-07T13:06:24.451Z,2.93
2023-03-07T13:08:56.691Z,2.17
2023-03-07T13:11:27.602Z,5.23
2023-03-07T13:13:59.539Z,11.73
2023-03-07T13:16:39.276Z,2.80
2023-03-07T13:19:44.719Z,2.53
2023-03-07T13:22:49.940Z,3.53
2023-03-07T13:26:01.358Z,3.03
2023-03-07T13:28:38.292Z,15.60
2023-03-07T13:31:39.362Z,2.03
2023-03-07T13:34:49.837Z,4.27
2023-03-07T13:37:53.217Z,2.97
2023-03-07T13:40:57.699Z,6.53
2023-03-07T13:44:02.469Z,2.37
2023-03-07T13:46:49.114Z,3.53
2023-03-07T13:49:45.470Z,2.87
2023-03-07T13:52:38.778Z,3.40
2023-03-07T13:55:25.973Z,2.60
2023-03-07T13:57:58.552Z,3.70
2023-03-07T14:00:32.825Z,1.97
2023-03-07T14:03:02.810Z,2.53
2023-03-07T14:05:34.499Z,3.17
2023-03-07T14:08:03.511Z,3.17
2023-03-07T14:10:32.671Z,2.40
2023-03-07T14:13:27.848Z,3.97
2023-03-07T14:16:10.579Z,2.33
2023-03-07T14:18:59.201Z,2.37
2023-03-07T14:21:36.828Z,3.70
2023-03-07T14:24:23.267Z,6.67
2023-03-07T14:26:56.469Z,10.53
2023-03-07T14:29:27.167Z,5.73
2023-03-07T14:31:57.219Z,5.73
2023-03-07T14:34:31.935Z,3.07
2023-03-07T14:37:02.083Z,3.80
2023-03-07T14:39:44.537Z,2.73
2023-03-07T14:42:21.409Z,5.40
2023-03-07T14:45:02.449Z,20.90
2023-03-07T14:47:47.083Z,3.87
2023-03-07T14:50:19.439Z,4.40
2023-03-07T14:52:49.722Z,3.07
2023-03-07T14:55:20.444Z,6.27
2023-03-07T14:57:52.992Z,3.43
2023-03-07T15:00:28.292Z,11.43
2023-03-07T15:02:58.767Z,3.37
2023-03-07T15:05:29.871Z,3.47
2023-03-07T15:07:58.160Z,3.33
2023-03-07T15:10:34.188Z,4.70
2023-03-07T15:13:04.253Z,6.03
2023-03-07T15:15:35.978Z,4.37
2023-03-07T15:18:07.746Z,5.43
2023-03-07T15:20:37.318Z,2.20
2023-03-07T15:23:07.479Z,4.80
2023-03-07T15:25:38.953Z,4.43
2023-03-07T15:28:16.645Z,7.33
2023-03-07T15:30:51.128Z,6.80
2023-03-07T15:33:25.265Z,2.70
2023-03-07T15:36:18.504Z,4.80
2023-03-07T15:38:48.687Z,5.13
2023-03-07T15:41:29.421Z,3.07
2023-03-07T15:44:21.186Z,6.30
2023-03-07T15:46:51.776Z,2.47
2023-03-07T15:49:22.981Z,7.60
2023-03-07T15:51:55.608Z,4.63
2023-03-07T15:54:38.629Z,4.20
2023-03-07T15:57:08.845Z,4.80
2023-03-07T15:59:39.578Z,3.93
2023-03-07T16:02:38.880Z,2.80
2023-03-07T16:05:28.466Z,3.03
2023-03-07T16:07:58.978Z,5.37
2023-03-07T16:10:29.861Z,3.07
2023-03-07T16:12:58.143Z,3.90
2023-03-07T16:15:26.307Z,3.93
2023-03-07T16:17:56.645Z,6.57
2023-03-07T16:20:27.506Z,4.23
2023-03-07T16:22:57.217Z,3.50
2023-03-07T16:25:28.385Z,6.00
2023-03-07T16:27:57.918Z,3.97
2023-03-07T16:30:27.680Z,2.63
2023-03-07T16:32:56.316Z,3.10
2023-03-07T16:35:26.363Z,3.13
2023-03-07T16:37:55.279Z,4.50
2023-03-07T16:40:26.282Z,3.33
2023-03-07T16:42:54.628Z,8.63
2023-03-07T16:45:24.713Z,5.80
2023-03-07T16:47:53.685Z,5.10
2023-03-07T16:50:23.818Z,4.30
2023-03-07T16:52:51.650Z,4.17
2023-03-07T16:55:20.501Z,3.80
2023-03-07T16:57:52.349Z,4.47
2023-03-07T17:00:24.992Z,3.33
2023-03-07T17:02:55.631Z,2.83
2023-03-07T17:05:25.724Z,21.73
2023-03-07T17:07:53.850Z,4.30
2023-03-07T17:10:21.980Z,3.10
2023-03-07T17:12:53.580Z,5.73
2023-03-07T17:15:26.271Z,3.13
2023-03-07T17:17:54.801Z,6.93
2023-03-07T17:20:22.853Z,6.00
2023-03-07T17:22:52.466Z,3.57
2023-03-07T17:25:20.884Z,6.20
2023-03-07T17:27:53.948Z,3.70
2023-03-07T17:30:24.899Z,4.20
2023-03-07T17:32:53.065Z,7.03
2023-03-07T17:35:21.430Z,16.13
2023-03-07T17:37:53.167Z,8.87
2023-03-07T17:40:22.123Z,52.77
2023-03-07T17:42:55.010Z,10.00
2023-03-07T17:45:23.013Z,8.07
2023-03-07T17:47:53.563Z,6.43
2023-03-07T17:50:24.162Z,4.90
2023-03-07T17:52:52.678Z,4.87
2023-03-07T17:55:21.166Z,4.77
2023-03-07T17:57:53.057Z,7.03
2023-03-07T18:00:23.009Z,3.93
2023-03-07T18:02:50.996Z,3.87
2023-03-07T18:05:20.188Z,6.97
2023-03-07T18:07:51.385Z,6.53
2023-03-07T18:10:19.449Z,6.77
2023-03-07T18:12:53.532Z,6.30
2023-03-07T18:15:22.761Z,3.40
2023-03-07T18:17:51.037Z,9.80
2023-03-07T18:20:21.870Z,6.50
2023-03-07T18:22:50.229Z,9.57
2023-03-07T18:25:20.785Z,10.17
2023-03-07T18:27:48.955Z,5.57
2023-03-07T18:30:20.116Z,6.53
2023-03-07T18:32:48.076Z,10.73
2023-03-07T18:35:16.724Z,6.27
2023-03-07T18:37:45.443Z,7.07
2023-03-07T18:40:15.630Z,6.13
2023-03-07T18:42:44.168Z,7.37
2023-03-07T18:45:13.675Z,8.90
2023-03-07T18:47:46.055Z,7.00
2023-03-07T18:50:13.769Z,6.03
2023-03-07T18:52:55.635Z,6.60
2023-03-07T18:55:23.352Z,7.33
2023-03-07T18:57:51.185Z,6.43
2023-03-07T19:00:20.369Z,5.00
2023-03-07T19:02:54.139Z,6.60
2023-03-07T19:05:23.922Z,4.53
2023-03-07T19:07:51.813Z,9.77
2023-03-07T19:10:19.878Z,3.60
2023-03-07T19:12:47.679Z,6.33
2023-03-07T19:15:15.375Z,6.13
2023-03-07T19:17:43.248Z,5.33
2023-03-07T19:20:13.366Z,5.00
2023-03-07T19:22:41.268Z,6.67
2023-03-07T19:25:11.055Z,5.93
2023-03-07T19:27:39.068Z,18.10
2023-03-07T19:30:07.793Z,4.17
2023-03-07T19:32:35.749Z,7.10
2023-03-07T19:35:03.632Z,7.63
2023-03-07T19:37:32.703Z,9.37
2023-03-07T19:40:00.488Z,7.10
2023-03-07T19:42:28.576Z,13.50
2023-03-07T19:44:56.358Z,7.53
2023-03-07T19:47:24.247Z,8.47
2023-03-07T19:49:51.994Z,7.83
2023-03-07T19:52:19.948Z,7.90
2023-03-07T19:54:52.609Z,6.53
2023-03-07T19:57:20.480Z,8.23
2023-03-07T19:59:53.061Z,10.70
2023-03-07T20:02:22.338Z,5.90
2023-03-07T20:04:50.817Z,8.13
2023-03-07T20:07:18.683Z,8.23
2023-03-07T20:09:46.579Z,8.60
2023-03-07T20:12:15.895Z,8.10
2023-03-07T20:14:44.590Z,10.67
2023-03-07T20:17:12.787Z,8.47
2023-03-07T20:19:40.692Z,6.97
2023-03-07T20:22:08.787Z,7.50
2023-03-07T20:24:37.584Z,10.00
2023-03-07T20:27:05.424Z,10.23
2023-03-07T20:29:34.622Z,16.17
2023-03-07T20:32:02.413Z,17.47
2023-03-07T20:34:30.242Z,10.73
2023-03-07T20:36:58.309Z,8.33
2023-03-07T20:39:26.126Z,8.87
2023-03-07T20:41:53.984Z,8.63
2023-03-07T20:44:21.835Z,12.33
2023-03-07T20:46:51.182Z,11.73
2023-03-07T20:49:19.090Z,10.63
2023-03-07T20:51:48.679Z,15.47
2023-03-07T20:54:17.942Z,8.00
2023-03-07T20:56:47.527Z,9.43
2023-03-07T20:59:17.102Z,11.20
2023-03-07T21:01:45.286Z,13.13
2023-03-07T21:04:17.671Z,11.70
2023-03-07T21:06:46.290Z,9.93
2023-03-07T21:09:16.398Z,13.50
2023-03-07T21:11:46.038Z,9.00
2023-03-07T21:14:14.342Z,9.77
2023-03-07T21:16:44.834Z,7.93
2023-03-07T21:19:14.491Z,8.63
2023-03-07T21:21:47.474Z,8.40
2023-03-07T21:24:16.324Z,9.07
2023-03-07T21:26:44.120Z,10.00
2023-03-07T21:29:13.732Z,11.23
2023-03-07T21:31:41.678Z,10.53
2023-03-07T21:34:13.486Z,12.30
2023-03-07T21:36:46.093Z,10.30
2023-03-07T21:39:14.036Z,11.67
2023-03-07T21:41:45.063Z,7.53
2023-03-07T21:44:14.436Z,7.83
2023-03-07T21:46:42.533Z,10.87
2023-03-07T21:49:10.278Z,9.67
2023-03-07T21:51:40.925Z,7.90
2023-03-07T21:54:10.122Z,7.67
2023-03-07T21:56:40.391Z,8.20
2023-03-07T21:59:08.688Z,11.40
2023-03-07T22:01:36.804Z,8.07
2023-03-07T22:04:04.795Z,10.97
2023-03-07T22:06:32.900Z,8.33
2023-03-07T22:09:03.417Z,8.50
2023-03-07T22:11:33.390Z,11.77
2023-03-07T22:14:01.097Z,6.83
2023-03-07T22:16:31.090Z,9.57
2023-03-07T22:18:59.208Z,11.27
2023-03-07T22:21:27.727Z,10.17
2023-03-07T22:24:00.802Z,7.53
2023-03-07T22:26:30.218Z,4.93
2023-03-07T22:29:00.316Z,7.30
2023-03-07T22:31:28.179Z,7.23
2023-03-07T22:33:56.052Z,7.00
2023-03-07T22:36:23.991Z,5.87
2023-03-07T22:38:55.314Z,5.13
2023-03-07T22:41:24.688Z,9.10
2023-03-07T22:43:53.492Z,8.00
2023-03-07T22:46:22.793Z,5.10
2023-03-07T22:48:53.426Z,13.10
2023-03-07T22:51:21.542Z,6.27
2023-03-07T22:53:49.637Z,18.50
2023-03-07T22:56:18.992Z,8.83
2023-03-07T22:58:46.886Z,8.97
2023-03-07T23:01:16.344Z,5.30
2023-03-07T23:03:45.554Z,4.10
2023-03-07T23:06:13.740Z,6.17
2023-03-07T23:08:45.368Z,7.07
2023-03-07T23:11:13.540Z,5.57
2023-03-07T23:13:41.552Z,6.30
2023-03-07T23:16:12.564Z,9.50
2023-03-07T23:18:41.716Z,3.73
2023-03-07T23:21:12.669Z,6.57
2023-03-07T23:23:40.490Z,4.77
2023-03-07T23:26:09.160Z,5.33
2023-03-07T23:28:37.057Z,5.00
2023-03-07T23:31:04.919Z,5.47
2023-03-07T23:33:35.994Z,9.80
2023-03-07T23:36:04.112Z,5.60
2023-03-07T23:38:33.305Z,7.23
2023-03-07T23:41:01.044Z,7.93
2023-03-07T23:43:28.920Z,5.00
2023-03-07T23:45:56.860Z,5.43
2023-03-07T23:48:24.662Z,8.43
2023-03-07T23:50:52.542Z,2.93
2023-03-07T23:53:20.465Z,7.03
2023-03-07T23:55:49.938Z,4.57
2023-03-07T23:58:17.733Z,5.67
